Aérodrome :
LOGIN :

S'inscrire | Disclaimer

   EN    FR    IT 

 










Légende :    VFR   VFR Marginal   IFR   IFR Intensif   IFR Très Intensif
Visi : 
Plafond : 
>= 8 km
>= 3000ft
5 à 8 km
1000 à 3000 ft
1500m à 5 km
500 à 1000 ft
800 à 1500m
200 à 500 ft
< 800m
< 200 ft
Symboles :   Orages  Brouillard  Fortes neiges  Fortes précipitations  Vent > 20 kt
SIGMETs :   Divers  Orages  Givrage  Turbulence  Onde Orograph.  Cendres Volcan.






- Altitude de l'aérodrome : 788 ft
- Code IATA : DCM


LFCK - Castres-Mazamet

DERNIER METAR :
  • 020700Z AUTO 11009KT 9999 FEW027 BKN062 OVC082 09/05 Q1014

METARs EXPIRÉS :
  • 020630Z AUTO 12009KT 9999 FEW028 BKN062 OVC080 09/05 Q1014
  • 020600Z AUTO 10009KT CAVOK 09/05 Q1014
  • 020530Z AUTO 11010KT 9999 FEW032 OVC060 09/05 Q1014
  • 020500Z AUTO 11010KT 9999 FEW033 OVC062 09/04 Q1013
  • 020430Z AUTO 10010KT 080V140 9999 SCT031 OVC062 09/05 Q1013

Prévision TAF périmée.



MET'MAP, la Météo Aéronautique d'un coup d'oeil ! - Copyright ORBIFLY Décembre 2007 - Disclaimer

ORBIFLY MET'MAP TEAM :

Programmation & Développement : Alexandra Zaïnal
Sur une idée originale de : Baudouin d'Aumeries
Assistance à la programmation : Marc-Olivier Méhu
Soutien technique & logistique : Manuel Goepfert

Contact : metmap@orbifly.com




SOURCES & CREDITS :

   NOAA